Time;durP1;ratioP1;P1;durP2;ratioP2;P2;SDS_P1;SDS_P2;PMS_P1;PMS_P2;Temp;Humidity;BMP_temperature;BMP_pressure;BME280_temperature;BME280_humidity;BME280_pressure;Samples;Min_cycle;Max_cycle;Signal;HPM_P1;HPM_P2
2021/05/23 00:00:30;;;;;;;5.90;2.10;;;;;;;;;;5021216;28;20053;-78
2021/05/23 00:02:58;;;;;;;8.27;2.10;;;;;;;;;;5032785;28;20545;-79
2021/05/23 00:05:27;;;;;;;6.40;1.88;;;;;;;;;;5031299;28;20111;-80
2021/05/23 00:08:00;;;;;;;4.18;2.17;;;;;;;;;;5029893;28;20061;-80
2021/05/23 00:10:28;;;;;;;5.07;1.77;;;;;;;;;;5014056;28;20153;-79
2021/05/23 00:12:57;;;;;;;6.70;2.33;;;;;;;;;;5013431;28;20084;-79
2021/05/23 00:15:28;;;;;;;5.90;2.05;;;;;;;;;;5015782;28;20081;-79
2021/05/23 00:17:55;;;;;;;6.65;1.83;;;;;;;;;;5041118;28;21969;-79
2021/05/23 00:20:23;;;;;;;4.55;1.77;;;;;;;;;;5031895;28;20076;-79
2021/05/23 00:22:50;;;;;;;11.27;2.00;;;;;;;;;;5014108;28;20135;-79
2021/05/23 00:25:18;;;;;;;4.65;2.10;;;;;;;;;;5047653;28;20106;-79
2021/05/23 00:27:46;;;;;;;7.20;2.08;;;;;;;;;;5032452;28;20084;-79
2021/05/23 00:30:14;;;;;;;5.65;2.03;;;;;;;;;;5039523;28;20069;-78
2021/05/23 00:32:42;;;;;;;7.90;1.73;;;;;;;;;;5037192;28;20099;-79
2021/05/23 00:35:09;;;;;;;5.97;2.13;;;;;;;;;;5026905;28;20045;-78
2021/05/23 00:37:36;;;;;;;6.07;2.20;;;;;;;;;;5013696;28;20422;-78
2021/05/23 00:40:05;;;;;;;11.10;2.47;;;;;;;;;;5016403;28;20048;-79
2021/05/23 00:42:33;;;;;;;5.05;1.63;;;;;;;;;;5031059;28;20048;-79
2021/05/23 00:45:01;;;;;;;4.28;1.92;;;;;;;;;;5010551;28;20115;-79
2021/05/23 00:47:28;;;;;;;5.85;1.92;;;;;;;;;;5020992;28;20766;-78
2021/05/23 00:49:55;;;;;;;7.03;2.00;;;;;;;;;;5029270;28;20054;-79
2021/05/23 00:52:23;;;;;;;6.57;1.98;;;;;;;;;;5037876;28;20055;-78
2021/05/23 00:54:50;;;;;;;7.75;2.00;;;;;;;;;;5037338;28;20095;-78
2021/05/23 00:57:17;;;;;;;3.22;1.52;;;;;;;;;;5015379;28;20076;-79
2021/05/23 00:59:44;;;;;;;5.25;1.88;;;;;;;;;;5029556;28;20042;-77
2021/05/23 01:02:38;;;;;;;5.32;1.98;;;;;;;;;;5028256;28;20490;-79
2021/05/23 01:05:05;;;;;;;9.05;2.28;;;;;;;;;;5028973;28;20103;-79
2021/05/23 01:07:32;;;;;;;7.35;1.98;;;;;;;;;;5015384;28;20088;-78
2021/05/23 01:10:11;;;;;;;4.28;1.67;;;;;;;;;;5029449;28;20179;-78
2021/05/23 01:12:53;;;;;;;6.35;2.70;;;;;;;;;;5021756;28;20132;-78
2021/05/23 01:15:33;;;;;;;6.80;1.88;;;;;;;;;;5027838;28;20053;-77
2021/05/23 01:18:24;;;;;;;9.65;2.60;;;;;;;;;;5028816;28;20148;-78
2021/05/23 01:20:53;;;;;;;4.15;1.67;;;;;;;;;;5034412;28;20540;-78
2021/05/23 01:23:20;;;;;;;4.38;1.80;;;;;;;;;;5031541;28;20064;-78
2021/05/23 01:25:48;;;;;;;3.42;1.63;;;;;;;;;;5026009;28;20079;-78
2021/05/23 01:28:16;;;;;;;7.05;2.08;;;;;;;;;;5029535;28;20080;-78
2021/05/23 01:30:45;;;;;;;8.60;1.73;;;;;;;;;;5037130;28;20089;-78
2021/05/23 01:33:14;;;;;;;9.95;2.22;;;;;;;;;;5021124;28;20682;-78
2021/05/23 01:35:46;;;;;;;9.40;2.42;;;;;;;;;;5032528;28;20598;-78
2021/05/23 01:38:18;;;;;;;9.23;2.20;;;;;;;;;;5025563;28;20045;-78
2021/05/23 01:40:46;;;;;;;7.13;2.42;;;;;;;;;;5019379;28;20096;-78
2021/05/23 01:43:14;;;;;;;12.05;3.67;;;;;;;;;;5024789;28;20042;-78
2021/05/23 01:45:41;;;;;;;7.05;2.05;;;;;;;;;;5017804;28;20104;-78
2021/05/23 01:48:10;;;;;;;5.47;2.17;;;;;;;;;;5024461;28;20049;-78
2021/05/23 01:50:38;;;;;;;7.63;2.28;;;;;;;;;;5030205;28;20116;-78
2021/05/23 01:53:06;;;;;;;9.05;2.47;;;;;;;;;;5017972;28;20080;-78
2021/05/23 01:55:34;;;;;;;5.85;2.25;;;;;;;;;;5017126;28;20148;-78
2021/05/23 01:58:01;;;;;;;6.68;2.28;;;;;;;;;;5028900;28;20203;-77
2021/05/23 02:00:33;;;;;;;9.55;2.38;;;;;;;;;;5010457;28;20042;-77
2021/05/23 02:03:01;;;;;;;5.00;2.55;;;;;;;;;;5019947;28;20737;-77
2021/05/23 02:05:28;;;;;;;8.55;2.88;;;;;;;;;;5015626;28;20084;-78
2021/05/23 02:07:55;;;;;;;14.02;2.78;;;;;;;;;;5026696;28;20061;-78
2021/05/23 02:10:22;;;;;;;8.15;2.53;;;;;;;;;;5017359;28;20073;-77
2021/05/23 02:12:50;;;;;;;5.60;2.40;;;;;;;;;;5016986;28;20486;-77
2021/05/23 02:15:18;;;;;;;7.18;2.50;;;;;;;;;;5028498;28;20107;-78
2021/05/23 02:17:46;;;;;;;7.07;2.30;;;;;;;;;;5026363;28;20068;-77
2021/05/23 02:20:16;;;;;;;16.60;2.88;;;;;;;;;;5031461;28;20120;-78
2021/05/23 02:22:47;;;;;;;9.90;2.45;;;;;;;;;;5025888;28;20058;-78
2021/05/23 02:25:19;;;;;;;7.75;2.70;;;;;;;;;;5030852;28;20422;-78
2021/05/23 02:27:47;;;;;;;11.18;2.38;;;;;;;;;;5033918;28;20108;-78
2021/05/23 02:30:16;;;;;;;8.55;2.50;;;;;;;;;;5040228;28;20057;-78
2021/05/23 02:32:44;;;;;;;6.22;2.42;;;;;;;;;;5018885;28;20135;-79
2021/05/23 02:35:12;;;;;;;5.90;2.28;;;;;;;;;;5029208;28;20124;-78
2021/05/23 02:37:40;;;;;;;10.45;2.30;;;;;;;;;;5028781;28;20050;-78
2021/05/23 02:40:11;;;;;;;9.52;2.45;;;;;;;;;;5036537;28;20720;-78
2021/05/23 02:42:39;;;;;;;10.52;2.40;;;;;;;;;;5017231;28;20041;-77
2021/05/23 02:45:08;;;;;;;7.93;2.40;;;;;;;;;;5016601;28;20454;-85
2021/05/23 02:47:37;;;;;;;13.35;2.90;;;;;;;;;;5032122;28;20756;-84
2021/05/23 02:50:07;;;;;;;8.73;3.03;;;;;;;;;;5033287;28;20077;-84
2021/05/23 02:52:37;;;;;;;4.93;2.28;;;;;;;;;;5010991;28;20060;-85
2021/05/23 02:55:10;;;;;;;9.85;2.17;;;;;;;;;;5027142;28;20076;-85
2021/05/23 02:57:40;;;;;;;8.20;3.00;;;;;;;;;;5011662;28;20140;-85
2021/05/23 03:00:09;;;;;;;7.60;2.33;;;;;;;;;;5034578;28;20041;-84
2021/05/23 03:02:36;;;;;;;8.15;2.00;;;;;;;;;;5032020;28;20053;-77
2021/05/23 03:05:04;;;;;;;9.02;2.38;;;;;;;;;;5030751;28;20048;-78
2021/05/23 03:07:35;;;;;;;4.80;2.20;;;;;;;;;;5023878;28;20477;-78
2021/05/23 03:10:03;;;;;;;13.02;2.30;;;;;;;;;;5022424;28;20084;-78
2021/05/23 03:12:31;;;;;;;6.93;2.17;;;;;;;;;;5035316;28;20552;-78
2021/05/23 03:14:58;;;;;;;9.25;2.45;;;;;;;;;;5028351;28;20157;-78
2021/05/23 03:17:25;;;;;;;6.68;2.08;;;;;;;;;;5018559;28;20207;-78
2021/05/23 03:19:53;;;;;;;9.80;2.45;;;;;;;;;;5027557;28;20052;-78
2021/05/23 03:22:20;;;;;;;5.68;1.88;;;;;;;;;;5033773;28;20119;-78
2021/05/23 03:24:47;;;;;;;4.90;1.88;;;;;;;;;;5031846;28;20106;-77
2021/05/23 03:27:15;;;;;;;10.02;2.35;;;;;;;;;;5024425;28;20073;-77
2021/05/23 03:29:43;;;;;;;5.15;2.35;;;;;;;;;;5029481;28;20049;-77
2021/05/23 03:32:10;;;;;;;5.47;2.13;;;;;;;;;;5036695;28;20079;-77
2021/05/23 03:34:37;;;;;;;8.60;2.20;;;;;;;;;;5030973;28;20137;-78
2021/05/23 03:37:04;;;;;;;9.98;2.47;;;;;;;;;;5017388;28;20049;-78
2021/05/23 03:39:31;;;;;;;5.55;2.22;;;;;;;;;;5026806;28;20088;-78
2021/05/23 03:41:59;;;;;;;11.20;2.40;;;;;;;;;;5031038;28;20145;-78
2021/05/23 03:44:26;;;;;;;10.48;2.38;;;;;;;;;;5022515;28;20049;-78
2021/05/23 03:46:53;;;;;;;8.02;2.63;;;;;;;;;;4998794;28;20132;-78
2021/05/23 03:49:20;;;;;;;6.55;2.40;;;;;;;;;;5018737;28;20084;-78
2021/05/23 03:51:48;;;;;;;7.55;2.28;;;;;;;;;;5029585;28;20119;-78
2021/05/23 03:54:16;;;;;;;8.93;2.50;;;;;;;;;;5026114;28;20504;-78
2021/05/23 03:56:43;;;;;;;5.63;2.13;;;;;;;;;;5005804;28;20108;-78
2021/05/23 03:59:11;;;;;;;8.95;2.40;;;;;;;;;;5028230;28;20301;-78
2021/05/23 04:01:39;;;;;;;4.63;2.22;;;;;;;;;;5031991;28;20037;-78
2021/05/23 04:04:07;;;;;;;11.57;2.42;;;;;;;;;;5034842;28;20158;-78
2021/05/23 04:06:34;;;;;;;5.95;2.13;;;;;;;;;;5032467;28;20053;-78
2021/05/23 04:09:01;;;;;;;13.70;2.47;;;;;;;;;;5036195;28;20140;-78
2021/05/23 04:11:34;;;;;;;5.70;2.10;;;;;;;;;;5012140;28;20049;-78
2021/05/23 04:14:03;;;;;;;7.60;2.33;;;;;;;;;;5030377;28;20049;-78
2021/05/23 04:16:30;;;;;;;10.52;2.10;;;;;;;;;;5027875;28;20061;-78
2021/05/23 04:18:57;;;;;;;12.10;2.28;;;;;;;;;;5030659;28;20065;-78
2021/05/23 04:21:25;;;;;;;10.10;2.90;;;;;;;;;;5030530;28;20053;-79
2021/05/23 04:23:52;;;;;;;7.25;2.47;;;;;;;;;;5034539;28;20703;-78
2021/05/23 04:26:20;;;;;;;4.38;2.03;;;;;;;;;;5038913;28;20041;-78
2021/05/23 04:28:47;;;;;;;8.15;2.30;;;;;;;;;;5026328;28;20115;-78
2021/05/23 04:31:14;;;;;;;8.55;2.17;;;;;;;;;;5014655;28;20103;-78
2021/05/23 04:33:42;;;;;;;4.45;2.15;;;;;;;;;;5028993;28;20128;-77
2021/05/23 04:36:09;;;;;;;11.63;3.10;;;;;;;;;;5021082;28;20851;-78
2021/05/23 04:38:36;;;;;;;6.72;2.38;;;;;;;;;;5034455;28;20481;-78
2021/05/23 04:41:04;;;;;;;5.75;2.80;;;;;;;;;;5030029;28;20156;-78
2021/05/23 04:43:31;;;;;;;5.30;2.17;;;;;;;;;;5028853;28;20045;-78
2021/05/23 04:45:58;;;;;;;5.70;2.33;;;;;;;;;;5028223;28;20645;-78
2021/05/23 04:48:25;;;;;;;8.10;2.00;;;;;;;;;;5016161;28;20077;-77
2021/05/23 04:50:53;;;;;;;7.35;2.30;;;;;;;;;;5030579;28;20079;-81
2021/05/23 04:53:20;;;;;;;7.45;2.53;;;;;;;;;;5029425;28;20084;-80
2021/05/23 04:55:47;;;;;;;4.97;2.03;;;;;;;;;;5030584;28;20057;-78
2021/05/23 04:58:14;;;;;;;5.78;2.20;;;;;;;;;;5015843;28;20115;-78
2021/05/23 05:00:42;;;;;;;8.52;2.33;;;;;;;;;;5020997;28;20046;-78
2021/05/23 05:03:09;;;;;;;7.13;2.33;;;;;;;;;;5029013;28;20107;-78
2021/05/23 05:05:36;;;;;;;5.85;2.60;;;;;;;;;;5016541;28;20049;-78
2021/05/23 05:08:04;;;;;;;6.90;2.40;;;;;;;;;;5030708;28;20056;-79
2021/05/23 05:10:31;;;;;;;9.77;3.92;;;;;;;;;;5009671;28;20085;-77
2021/05/23 05:12:59;;;;;;;5.55;2.50;;;;;;;;;;5010205;28;20089;-75
2021/05/23 05:15:26;;;;;;;6.95;2.22;;;;;;;;;;5026808;28;20080;-75
2021/05/23 05:17:54;;;;;;;8.43;2.47;;;;;;;;;;5029146;28;20164;-75
2021/05/23 05:20:21;;;;;;;8.35;2.17;;;;;;;;;;5029241;28;20134;-75
2021/05/23 05:22:50;;;;;;;9.18;2.60;;;;;;;;;;5029093;28;20263;-74
2021/05/23 05:25:17;;;;;;;7.35;2.30;;;;;;;;;;5027011;28;20049;-75
2021/05/23 05:27:45;;;;;;;8.70;2.53;;;;;;;;;;5027118;28;20123;-75
2021/05/23 05:30:12;;;;;;;7.10;2.20;;;;;;;;;;5009828;28;20073;-75
2021/05/23 05:32:39;;;;;;;7.18;2.30;;;;;;;;;;5025532;28;20092;-74
2021/05/23 05:35:07;;;;;;;5.35;2.35;;;;;;;;;;5026959;28;20049;-76
2021/05/23 05:37:34;;;;;;;6.85;2.25;;;;;;;;;;5028287;28;20134;-76
2021/05/23 05:40:03;;;;;;;11.73;2.97;;;;;;;;;;5019632;28;20049;-78
2021/05/23 05:42:33;;;;;;;9.82;2.70;;;;;;;;;;5033921;28;20053;-80
2021/05/23 05:45:03;;;;;;;8.18;2.78;;;;;;;;;;5010046;28;20803;-83
2021/05/23 05:47:32;;;;;;;11.13;2.65;;;;;;;;;;5017950;28;20049;-87
2021/05/23 05:50:00;;;;;;;11.80;2.33;;;;;;;;;;5031563;28;20053;-87
2021/05/23 05:52:27;;;;;;;7.20;2.47;;;;;;;;;;5022098;28;20088;-87
2021/05/23 05:54:56;;;;;;;4.40;2.17;;;;;;;;;;5018686;28;20085;-87
2021/05/23 05:57:23;;;;;;;6.00;2.50;;;;;;;;;;5023626;28;20085;-88
2021/05/23 05:59:50;;;;;;;9.63;2.67;;;;;;;;;;5017866;28;20042;-88
2021/05/23 06:02:21;;;;;;;5.13;2.55;;;;;;;;;;5035521;28;20111;-86
2021/05/23 06:04:51;;;;;;;5.15;2.17;;;;;;;;;;5033423;28;20091;-85
2021/05/23 06:07:22;;;;;;;8.23;2.10;;;;;;;;;;5011893;28;20053;-87
2021/05/23 06:10:00;;;;;;;12.52;2.58;;;;;;;;;;5028927;28;20076;-87
2021/05/23 06:12:28;;;;;;;9.02;2.42;;;;;;;;;;5013426;28;20100;-87
2021/05/23 06:14:55;;;;;;;6.90;2.22;;;;;;;;;;5030487;28;20490;-90
2021/05/23 06:17:27;;;;;;;14.13;2.38;;;;;;;;;;5015428;28;20112;-87
2021/05/23 06:19:55;;;;;;;11.57;2.00;;;;;;;;;;5015973;28;20049;-86
2021/05/23 06:22:23;;;;;;;7.40;2.72;;;;;;;;;;5015847;28;20136;-86
2021/05/23 06:24:50;;;;;;;8.32;1.95;;;;;;;;;;5016401;28;20057;-86
2021/05/23 06:27:17;;;;;;;8.75;2.58;;;;;;;;;;5032895;28;20085;-85
2021/05/23 06:29:45;;;;;;;9.43;1.88;;;;;;;;;;5033168;28;20111;-84
2021/05/23 06:32:13;;;;;;;11.00;2.10;;;;;;;;;;5015293;28;20085;-84
2021/05/23 06:34:40;;;;;;;6.82;2.20;;;;;;;;;;5031975;28;20072;-85
2021/05/23 06:37:07;;;;;;;7.22;2.00;;;;;;;;;;5014638;28;20111;-86
2021/05/23 06:39:35;;;;;;;13.02;2.47;;;;;;;;;;5032001;28;20128;-84
2021/05/23 06:42:02;;;;;;;10.38;2.17;;;;;;;;;;5032981;28;20049;-83
2021/05/23 06:44:29;;;;;;;11.63;2.38;;;;;;;;;;5010572;28;20104;-84
2021/05/23 06:46:58;;;;;;;14.20;2.50;;;;;;;;;;5010834;28;20085;-83
2021/05/23 06:49:27;;;;;;;7.38;2.17;;;;;;;;;;5010061;28;20682;-82
2021/05/23 06:51:55;;;;;;;10.15;2.17;;;;;;;;;;5010598;28;20050;-83
2021/05/23 06:54:22;;;;;;;10.02;1.95;;;;;;;;;;5011220;28;20136;-82
2021/05/23 06:56:50;;;;;;;11.43;2.00;;;;;;;;;;5010891;28;20054;-83
2021/05/23 06:59:26;;;;;;;9.48;2.05;;;;;;;;;;5010787;28;20454;-82
2021/05/23 07:01:54;;;;;;;10.48;2.05;;;;;;;;;;5011478;28;20395;-86
2021/05/23 07:04:21;;;;;;;15.30;2.20;;;;;;;;;;5030853;28;20134;-85
2021/05/23 07:06:48;;;;;;;6.85;2.10;;;;;;;;;;5015210;28;20112;-86
2021/05/23 07:09:16;;;;;;;10.75;2.45;;;;;;;;;;5011811;28;20132;-83
2021/05/23 07:11:46;;;;;;;9.30;1.98;;;;;;;;;;5023275;28;20115;-84
2021/05/23 07:14:14;;;;;;;8.40;2.28;;;;;;;;;;5031164;28;20132;-81
2021/05/23 07:16:41;;;;;;;12.85;2.42;;;;;;;;;;5016941;28;20057;-86
2021/05/23 07:19:08;;;;;;;10.55;1.85;;;;;;;;;;5034435;28;20080;-93
2021/05/23 07:21:35;;;;;;;10.63;2.05;;;;;;;;;;5017244;28;20053;-92
2021/05/23 07:24:03;;;;;;;8.77;2.05;;;;;;;;;;5017219;28;20088;-89
2021/05/23 07:26:31;;;;;;;9.25;1.67;;;;;;;;;;5017376;28;20131;-88
2021/05/23 07:28:58;;;;;;;9.30;1.90;;;;;;;;;;5017434;28;20045;-92
2021/05/23 07:31:25;;;;;;;9.45;1.92;;;;;;;;;;5017034;28;20067;-90
2021/05/23 07:33:53;;;;;;;10.25;2.35;;;;;;;;;;5034208;28;20115;-89
2021/05/23 07:36:20;;;;;;;7.38;1.60;;;;;;;;;;5013238;28;20046;-87
2021/05/23 07:38:47;;;;;;;9.93;2.40;;;;;;;;;;5021492;28;20107;-87
2021/05/23 07:41:14;;;;;;;7.82;1.73;;;;;;;;;;5030747;28;20587;-88
2021/05/23 07:43:42;;;;;;;5.30;1.83;;;;;;;;;;5011038;28;20060;-85
2021/05/23 07:46:09;;;;;;;8.63;2.38;;;;;;;;;;5029200;28;20101;-85
2021/05/23 07:48:38;;;;;;;8.60;2.05;;;;;;;;;;5015822;28;20088;-87
2021/05/23 07:51:06;;;;;;;7.40;2.22;;;;;;;;;;5033885;28;20103;-85
2021/05/23 07:53:34;;;;;;;8.00;2.40;;;;;;;;;;5015966;28;20049;-84
2021/05/23 07:56:01;;;;;;;5.82;1.83;;;;;;;;;;5033272;28;20103;-87
2021/05/23 07:58:29;;;;;;;11.75;1.77;;;;;;;;;;5033459;28;20048;-85
2021/05/23 08:00:56;;;;;;;7.00;1.38;;;;;;;;;;5032652;28;20081;-85
2021/05/23 08:03:23;;;;;;;6.60;1.65;;;;;;;;;;5032072;28;20065;-86
2021/05/23 08:05:50;;;;;;;7.13;1.48;;;;;;;;;;5033015;28;20103;-87
2021/05/23 08:08:17;;;;;;;8.57;2.03;;;;;;;;;;5016076;28;20111;-85
2021/05/23 08:10:45;;;;;;;7.60;2.05;;;;;;;;;;5015580;28;20081;-86
2021/05/23 08:13:12;;;;;;;12.02;1.92;;;;;;;;;;5014749;28;20103;-86
2021/05/23 08:15:41;;;;;;;10.70;1.70;;;;;;;;;;5015215;28;20053;-87
2021/05/23 08:18:09;;;;;;;11.27;2.33;;;;;;;;;;5032976;28;20057;-86
2021/05/23 08:20:36;;;;;;;9.13;2.08;;;;;;;;;;5026165;28;20115;-85
2021/05/23 08:23:03;;;;;;;6.65;1.98;;;;;;;;;;5032983;28;20077;-86
2021/05/23 08:25:31;;;;;;;8.02;2.22;;;;;;;;;;5031696;28;20103;-86
2021/05/23 08:27:58;;;;;;;6.72;1.70;;;;;;;;;;5031080;28;20620;-87
2021/05/23 08:30:25;;;;;;;7.72;1.80;;;;;;;;;;5027894;28;20490;-90
2021/05/23 08:32:52;;;;;;;9.70;1.73;;;;;;;;;;5030988;28;20079;-87
2021/05/23 08:35:23;;;;;;;8.43;2.10;;;;;;;;;;5015750;28;20060;-87
2021/05/23 08:37:51;;;;;;;6.55;2.25;;;;;;;;;;5014895;28;20065;-87
2021/05/23 08:40:18;;;;;;;7.50;1.95;;;;;;;;;;5032369;28;20774;-88
2021/05/23 08:42:50;;;;;;;8.77;1.70;;;;;;;;;;5013621;28;20048;-87
2021/05/23 08:45:18;;;;;;;8.73;1.50;;;;;;;;;;5027517;28;20054;-88
2021/05/23 08:47:46;;;;;;;6.13;1.75;;;;;;;;;;5024687;28;20069;-87
2021/05/23 08:50:18;;;;;;;9.13;1.65;;;;;;;;;;5011899;28;20053;-91
2021/05/23 08:52:46;;;;;;;4.80;1.58;;;;;;;;;;5011360;28;20081;-89
2021/05/23 08:55:15;;;;;;;6.75;1.90;;;;;;;;;;5019144;28;20128;-88
2021/05/23 08:57:43;;;;;;;7.85;1.65;;;;;;;;;;5011642;28;20050;-88
2021/05/23 09:00:11;;;;;;;13.38;1.83;;;;;;;;;;5012110;28;20049;-91
2021/05/23 09:02:50;;;;;;;5.65;1.30;;;;;;;;;;5017511;28;20100;-87
2021/05/23 09:05:30;;;;;;;7.68;1.92;;;;;;;;;;5021371;28;20435;-89
2021/05/23 09:08:00;;;;;;;5.82;1.90;;;;;;;;;;5015277;28;20096;-91
2021/05/23 09:10:34;;;;;;;5.93;1.08;;;;;;;;;;5016842;28;20053;-88
2021/05/23 09:13:02;;;;;;;4.22;1.27;;;;;;;;;;5014679;28;20060;-88
2021/05/23 09:15:54;;;;;;;8.52;1.63;;;;;;;;;;5015097;28;20049;-90
2021/05/23 09:18:21;;;;;;;4.95;1.52;;;;;;;;;;5014954;28;20136;-87
2021/05/23 09:21:00;;;;;;;3.42;1.33;;;;;;;;;;5011571;28;20053;-86
2021/05/23 09:23:27;;;;;;;3.45;1.25;;;;;;;;;;5011472;28;20052;-86
2021/05/23 09:25:55;;;;;;;6.47;1.70;;;;;;;;;;5026850;28;20050;-85
2021/05/23 09:28:30;;;;;;;5.82;1.77;;;;;;;;;;5018304;28;20095;-84
2021/05/23 09:30:57;;;;;;;4.55;1.52;;;;;;;;;;5019012;28;20665;-84
2021/05/23 09:33:31;;;;;;;5.65;1.20;;;;;;;;;;5028199;28;20064;-84
2021/05/23 09:35:58;;;;;;;4.47;1.40;;;;;;;;;;5018150;28;20056;-84
2021/05/23 09:38:28;;;;;;;4.00;1.40;;;;;;;;;;5017398;28;20054;-84
2021/05/23 09:40:55;;;;;;;2.65;1.13;;;;;;;;;;5030922;28;20100;-84
2021/05/23 09:43:22;;;;;;;7.47;1.40;;;;;;;;;;5036293;28;20632;-86
2021/05/23 09:45:52;;;;;;;9.65;1.70;;;;;;;;;;5018608;28;20073;-89
2021/05/23 09:48:23;;;;;;;7.97;1.40;;;;;;;;;;5023688;28;20197;-86
2021/05/23 09:50:52;;;;;;;4.07;1.30;;;;;;;;;;5028890;28;20099;-89
2021/05/23 09:53:23;;;;;;;4.57;1.40;;;;;;;;;;5036553;28;20045;-85
2021/05/23 09:56:11;;;;;;;6.03;2.00;;;;;;;;;;5017503;28;20091;-85
2021/05/23 09:58:48;;;;;;;4.90;1.20;;;;;;;;;;5034079;28;20076;-87
2021/05/23 10:01:26;;;;;;;6.30;1.52;;;;;;;;;;5017906;28;20045;-87
2021/05/23 10:03:56;;;;;;;6.35;1.42;;;;;;;;;;5021697;28;20069;-86
2021/05/23 10:06:31;;;;;;;3.75;1.38;;;;;;;;;;5033881;28;20494;-85
2021/05/23 10:09:01;;;;;;;6.70;1.83;;;;;;;;;;5018226;28;20107;-85
2021/05/23 10:11:35;;;;;;;9.18;1.40;;;;;;;;;;5026048;28;20103;-86
2021/05/23 10:14:02;;;;;;;3.65;1.30;;;;;;;;;;5032852;28;20132;-86
2021/05/23 10:16:30;;;;;;;7.97;1.33;;;;;;;;;;5017288;28;20399;-85
2021/05/23 10:18:58;;;;;;;7.50;1.92;;;;;;;;;;5033363;28;20053;-85
2021/05/23 10:21:27;;;;;;;6.88;1.92;;;;;;;;;;5034741;28;20080;-85
2021/05/23 10:23:57;;;;;;;4.07;1.38;;;;;;;;;;5032415;28;20062;-87
2021/05/23 10:26:45;;;;;;;7.40;1.48;;;;;;;;;;5032809;28;20045;-88
2021/05/23 10:29:12;;;;;;;6.10;2.10;;;;;;;;;;5014156;28;20050;-87
2021/05/23 10:31:40;;;;;;;4.10;1.52;;;;;;;;;;5020720;28;20057;-89
2021/05/23 10:34:07;;;;;;;7.13;1.65;;;;;;;;;;5018341;28;20045;-89
2021/05/23 10:36:44;;;;;;;10.90;2.10;;;;;;;;;;5016875;28;20053;-90
2021/05/23 10:39:13;;;;;;;4.82;1.60;;;;;;;;;;5026155;28;20406;-88
2021/05/23 10:41:41;;;;;;;4.28;1.55;;;;;;;;;;5013671;28;20042;-90
2021/05/23 10:44:25;;;;;;;4.28;1.38;;;;;;;;;;5022263;28;20137;-87
2021/05/23 10:46:52;;;;;;;8.70;2.75;;;;;;;;;;5030533;28;20057;-88
2021/05/23 10:49:20;;;;;;;10.70;2.63;;;;;;;;;;5015475;28;20045;-93
2021/05/23 10:51:54;;;;;;;6.53;2.10;;;;;;;;;;5032682;28;20111;-93
2021/05/23 10:54:21;;;;;;;10.18;1.63;;;;;;;;;;5027246;28;20042;-93
2021/05/23 10:56:58;;;;;;;4.22;1.60;;;;;;;;;;5036349;28;20049;-93
2021/05/23 10:59:32;;;;;;;13.13;2.13;;;;;;;;;;5037008;28;20088;-95
2021/05/23 11:02:00;;;;;;;6.03;1.45;;;;;;;;;;5019106;28;20056;-94
2021/05/23 11:04:45;;;;;;;6.45;1.70;;;;;;;;;;5019904;28;20049;-91
2021/05/23 11:07:13;;;;;;;6.00;1.95;;;;;;;;;;5013433;28;20108;-88
2021/05/23 11:09:50;;;;;;;7.30;1.48;;;;;;;;;;5033990;28;20049;-87
2021/05/23 11:12:22;;;;;;;8.73;1.40;;;;;;;;;;5018586;28;20050;-90
2021/05/23 11:14:56;;;;;;;4.03;1.40;;;;;;;;;;5032821;28;20092;-84
2021/05/23 11:17:23;;;;;;;9.13;2.78;;;;;;;;;;5016118;28;20132;-82
2021/05/23 11:19:50;;;;;;;13.38;2.55;;;;;;;;;;5033731;28;20045;-91
2021/05/23 11:22:19;;;;;;;8.07;2.63;;;;;;;;;;5035059;28;20049;-93
2021/05/23 11:24:51;;;;;;;9.48;2.55;;;;;;;;;;5017322;28;20068;-87
2021/05/23 11:27:24;;;;;;;12.52;3.35;;;;;;;;;;5017267;28;20046;-86
2021/05/23 11:29:53;;;;;;;13.77;3.50;;;;;;;;;;5017234;28;20045;-85
2021/05/23 11:32:22;;;;;;;7.97;2.88;;;;;;;;;;5033962;28;20387;-86
2021/05/23 11:34:49;;;;;;;10.38;3.95;;;;;;;;;;5033452;28;20498;-87
2021/05/23 11:37:17;;;;;;;9.70;3.53;;;;;;;;;;5016775;28;20409;-86
2021/05/23 11:39:44;;;;;;;10.15;2.97;;;;;;;;;;5020147;28;20049;-86
2021/05/23 11:42:12;;;;;;;9.43;3.42;;;;;;;;;;5018994;28;20049;-86
2021/05/23 11:44:41;;;;;;;8.85;3.40;;;;;;;;;;5028514;28;20069;-85
2021/05/23 11:47:09;;;;;;;10.25;3.55;;;;;;;;;;5028277;28;20046;-87
2021/05/23 11:49:44;;;;;;;9.48;2.40;;;;;;;;;;5015038;28;20045;-84
2021/05/23 11:52:12;;;;;;;15.98;2.55;;;;;;;;;;5012690;28;20521;-85
2021/05/23 11:54:41;;;;;;;15.55;2.72;;;;;;;;;;5020166;28;20857;-85
2021/05/23 11:57:19;;;;;;;10.40;3.10;;;;;;;;;;5033889;28;20045;-86
2021/05/23 11:59:47;;;;;;;9.02;2.38;;;;;;;;;;5012316;28;20084;-86
2021/05/23 12:02:15;;;;;;;11.55;2.22;;;;;;;;;;5027872;28;20477;-80
2021/05/23 12:04:42;;;;;;;11.15;2.40;;;;;;;;;;5032904;28;20111;-84
2021/05/23 12:07:10;;;;;;;5.13;2.03;;;;;;;;;;5032745;28;20057;-84
2021/05/23 12:09:38;;;;;;;7.38;1.10;;;;;;;;;;5032966;28;20049;-85
2021/05/23 12:12:07;;;;;;;6.63;1.58;;;;;;;;;;5014485;28;20052;-84
2021/05/23 12:14:41;;;;;;;7.15;1.75;;;;;;;;;;5014656;28;20613;-82
2021/05/23 12:17:12;;;;;;;5.95;1.85;;;;;;;;;;5015051;28;20072;-81
2021/05/23 12:19:59;;;;;;;6.95;2.45;;;;;;;;;;5032194;28;20077;-82
2021/05/23 12:22:31;;;;;;;4.97;1.45;;;;;;;;;;5014781;28;20124;-85
2021/05/23 12:25:08;;;;;;;6.07;2.45;;;;;;;;;;5015854;28;20045;-82
2021/05/23 12:27:37;;;;;;;6.50;2.00;;;;;;;;;;5009662;28;20054;-81
2021/05/23 12:30:07;;;;;;;5.45;1.98;;;;;;;;;;5012810;28;20128;-81
2021/05/23 12:32:48;;;;;;;5.80;1.75;;;;;;;;;;5009778;28;20130;-81
2021/05/23 12:35:17;;;;;;;6.50;1.50;;;;;;;;;;5028591;28;20042;-82
2021/05/23 12:37:49;;;;;;;8.00;1.38;;;;;;;;;;5010312;28;20045;-83
2021/05/23 12:40:17;;;;;;;7.53;1.58;;;;;;;;;;5012774;28;20076;-83
2021/05/23 12:42:44;;;;;;;11.63;1.80;;;;;;;;;;5012408;28;20045;-85
2021/05/23 12:45:12;;;;;;;14.40;2.00;;;;;;;;;;5014500;28;20041;-85
2021/05/23 12:47:49;;;;;;;7.85;1.60;;;;;;;;;;5013885;28;20076;-84
2021/05/23 12:50:29;;;;;;;4.25;0.82;;;;;;;;;;5014002;28;20133;-84
2021/05/23 12:52:56;;;;;;;4.80;1.08;;;;;;;;;;5012375;28;20049;-83
2021/05/23 12:55:24;;;;;;;5.75;1.55;;;;;;;;;;5013142;28;20107;-84
2021/05/23 12:57:52;;;;;;;9.57;1.40;;;;;;;;;;5030756;28;20049;-83
2021/05/23 13:00:20;;;;;;;5.43;1.40;;;;;;;;;;5012184;28;20478;-85
2021/05/23 13:02:49;;;;;;;5.70;1.23;;;;;;;;;;5029711;28;20049;-84
2021/05/23 13:05:17;;;;;;;2.33;1.00;;;;;;;;;;5029059;28;20620;-83
2021/05/23 13:07:46;;;;;;;4.80;1.40;;;;;;;;;;5012837;28;20191;-83
2021/05/23 13:10:23;;;;;;;3.40;1.10;;;;;;;;;;5013029;28;20050;-84
2021/05/23 13:13:01;;;;;;;2.30;0.90;;;;;;;;;;5012981;28;20053;-83
2021/05/23 13:15:30;;;;;;;5.03;1.60;;;;;;;;;;5013864;28;20092;-84
2021/05/23 13:17:58;;;;;;;10.95;2.08;;;;;;;;;;5028994;28;20088;-82
2021/05/23 13:20:30;;;;;;;6.05;1.70;;;;;;;;;;5013023;28;20899;-84
2021/05/23 13:22:57;;;;;;;7.25;1.38;;;;;;;;;;5013129;28;20049;-83
2021/05/23 13:25:25;;;;;;;3.70;1.48;;;;;;;;;;5012605;28;20091;-84
2021/05/23 13:27:57;;;;;;;6.05;1.10;;;;;;;;;;5024165;28;20072;-87
2021/05/23 13:30:25;;;;;;;5.68;1.15;;;;;;;;;;5028160;28;20465;-83
2021/05/23 13:32:58;;;;;;;3.47;0.90;;;;;;;;;;5008560;28;20042;-85
2021/05/23 13:35:27;;;;;;;5.30;1.30;;;;;;;;;;5007179;28;20706;-86
2021/05/23 13:37:54;;;;;;;7.85;1.58;;;;;;;;;;5026613;28;20080;-85
2021/05/23 13:40:22;;;;;;;9.75;1.30;;;;;;;;;;5008748;28;20050;-85
2021/05/23 13:42:51;;;;;;;7.40;1.50;;;;;;;;;;5012916;28;20046;-85
2021/05/23 13:45:19;;;;;;;3.55;1.67;;;;;;;;;;5013431;28;20140;-83
2021/05/23 13:47:48;;;;;;;3.40;1.40;;;;;;;;;;5005820;28;20038;-84
2021/05/23 13:50:15;;;;;;;8.65;1.73;;;;;;;;;;5025961;28;20046;-85
2021/05/23 13:52:46;;;;;;;2.90;1.60;;;;;;;;;;5004336;28;20050;-84
2021/05/23 13:55:13;;;;;;;6.82;1.40;;;;;;;;;;5024380;28;20041;-85
2021/05/23 13:57:47;;;;;;;8.20;1.60;;;;;;;;;;5011152;28;20046;-84
2021/05/23 14:00:26;;;;;;;5.80;1.55;;;;;;;;;;5028662;28;20042;-83
2021/05/23 14:03:14;;;;;;;4.60;1.55;;;;;;;;;;5028448;28;20616;-84
2021/05/23 14:05:41;;;;;;;5.55;1.08;;;;;;;;;;5029278;28;20052;-83
2021/05/23 14:08:09;;;;;;;4.05;1.08;;;;;;;;;;5012576;28;20049;-82
2021/05/23 14:10:45;;;;;;;8.77;1.35;;;;;;;;;;5013353;28;20123;-81
2021/05/23 14:13:14;;;;;;;5.35;1.20;;;;;;;;;;5013203;28;20073;-82
2021/05/23 14:15:41;;;;;;;5.85;1.23;;;;;;;;;;5029791;28;20129;-81
2021/05/23 14:18:10;;;;;;;2.15;1.08;;;;;;;;;;5013226;28;21087;-80
2021/05/23 14:20:37;;;;;;;4.53;1.15;;;;;;;;;;5030363;28;20053;-81
2021/05/23 14:23:05;;;;;;;4.30;1.02;;;;;;;;;;5012903;28;20069;-81
2021/05/23 14:25:33;;;;;;;3.08;0.98;;;;;;;;;;5013108;28;20375;-81
2021/05/23 14:28:00;;;;;;;3.08;1.17;;;;;;;;;;5029008;28;20050;-81
2021/05/23 14:30:27;;;;;;;3.22;1.00;;;;;;;;;;5013126;28;20049;-81
2021/05/23 14:32:55;;;;;;;2.55;0.98;;;;;;;;;;5012452;28;20144;-80
2021/05/23 14:35:24;;;;;;;2.42;1.00;;;;;;;;;;5028683;28;20496;-81
2021/05/23 14:37:53;;;;;;;4.60;1.02;;;;;;;;;;5010930;28;20092;-81
2021/05/23 14:40:21;;;;;;;3.85;1.35;;;;;;;;;;4962867;28;20138;-81
2021/05/23 14:42:48;;;;;;;4.72;1.20;;;;;;;;;;4987528;28;20136;-82
2021/05/23 14:45:16;;;;;;;5.20;1.45;;;;;;;;;;5031961;28;20053;-82
2021/05/23 14:48:02;;;;;;;2.63;1.20;;;;;;;;;;5034438;28;20049;-82
2021/05/23 14:50:31;;;;;;;3.33;1.30;;;;;;;;;;5016539;28;20049;-81
2021/05/23 14:52:59;;;;;;;6.07;1.35;;;;;;;;;;5034344;28;20641;-84